Time;durP1;ratioP1;P1;durP2;ratioP2;P2;SDS_P1;SDS_P2;PMS_P1;PMS_P2;Temp;Humidity;BMP_temperature;BMP_pressure;BME280_temperature;BME280_humidity;BME280_pressure;Samples;Min_cycle;Max_cycle;Signal;HPM_P1;HPM_P2
2021/12/23 00:01:59;;;;;;;;;;;4.70;99.90;;;;;;4983093;28;19933;-79
2021/12/23 00:04:27;;;;;;;;;;;6.00;99.90;;;;;;4951286;29;20426;-79
2021/12/23 00:06:55;;;;;;;;;;;4.70;99.90;;;;;;4981491;28;19949;-79
2021/12/23 00:09:30;;;;;;;;;;;4.70;99.90;;;;;;4966375;28;19930;-79
2021/12/23 00:11:59;;;;;;;;;;;4.70;99.90;;;;;;4969027;28;19927;-79
2021/12/23 00:14:27;;;;;;;;;;;3.00;99.90;;;;;;4983352;28;19934;-78
2021/12/23 00:17:17;;;;;;;;;;;4.80;99.90;;;;;;4953787;28;19926;-78
2021/12/23 00:19:58;;;;;;;;;;;4.80;99.90;;;;;;4987521;28;19936;-79
2021/12/23 00:25:16;;;;;;;;;;;6.00;99.90;;;;;;4972579;28;19956;-79
2021/12/23 00:27:44;;;;;;;;;;;4.80;99.90;;;;;;4954381;28;19930;-78
2021/12/23 00:30:15;;;;;;;;;;;4.80;99.90;;;;;;4965640;28;19930;-78
2021/12/23 00:32:43;;;;;;;;;;;4.90;99.90;;;;;;4987938;28;19937;-81
2021/12/23 00:35:11;;;;;;;;;;;4.90;99.90;;;;;;4973430;28;19927;-80
2021/12/23 00:37:45;;;;;;;;;;;4.90;99.90;;;;;;4986322;28;19928;-80
2021/12/23 00:40:13;;;;;;;;;;;4.90;99.90;;;;;;4972214;28;19930;-81
2021/12/23 00:42:40;;;;;;;;;;;5.00;99.90;;;;;;4989315;28;19932;-79
2021/12/23 00:45:09;;;;;;;;;;;5.10;99.90;;;;;;4950729;28;19941;-79
2021/12/23 00:47:38;;;;;;;;;;;5.00;99.90;;;;;;4966931;28;19934;-79
2021/12/23 00:50:06;;;;;;;;;;;5.00;99.90;;;;;;4966419;28;19914;-78
2021/12/23 00:52:37;;;;;;;;;;;5.10;99.90;;;;;;4940902;29;20273;-77
2021/12/23 00:55:06;;;;;;;;;;;5.00;99.90;;;;;;4977918;28;19930;-78
2021/12/23 00:57:38;;;;;;;;;;;5.00;99.90;;;;;;4986738;28;19941;-79
2021/12/23 01:00:09;;;;;;;;;;;6.30;99.90;;;;;;4989719;28;19930;-78
2021/12/23 01:02:37;;;;;;;;;;;5.10;99.90;;;;;;4973117;28;20005;-83
2021/12/23 01:05:05;;;;;;;;;;;5.10;99.90;;;;;;4988784;28;19937;-81
2021/12/23 01:07:33;;;;;;;;;;;5.10;99.90;;;;;;4971605;28;19933;-79
2021/12/23 01:10:01;;;;;;;;;;;5.30;99.90;;;;;;4971086;28;19927;-80
2021/12/23 01:12:35;;;;;;;;;;;5.40;99.90;;;;;;4953555;28;19937;-81
2021/12/23 01:15:50;;;;;;;;;;;5.20;99.90;;;;;;4968527;28;19936;-79
2021/12/23 01:18:09;;;;;;;;;;;5.60;99.90;;;;;;4969773;28;19942;-80
2021/12/23 01:20:39;;;;;;;;;;;5.20;99.90;;;;;;4956338;28;19926;-79
2021/12/23 01:23:08;;;;;;;;;;;5.20;99.90;;;;;;4989197;28;20289;-78
2021/12/23 01:25:38;;;;;;;;;;;5.30;99.90;;;;;;4972948;28;19926;-79
2021/12/23 01:28:08;;;;;;;;;;;6.00;99.90;;;;;;4956411;28;19930;-80
2021/12/23 01:30:37;;;;;;;;;;;5.30;99.90;;;;;;4989588;28;19932;-79
2021/12/23 01:33:07;;;;;;;;;;;4.00;99.90;;;;;;4971399;28;19926;-80
2021/12/23 01:35:36;;;;;;;;;;;3.80;99.90;;;;;;4987551;28;19933;-79
2021/12/23 01:38:04;;;;;;;;;;;6.20;99.90;;;;;;4970315;28;19933;-82
2021/12/23 01:40:32;;;;;;;;;;;5.30;99.90;;;;;;4987959;28;19931;-80
2021/12/23 01:43:03;;;;;;;;;;;5.30;99.90;;;;;;4984819;28;19948;-83
2021/12/23 01:45:32;;;;;;;;;;;5.50;99.90;;;;;;4951129;29;19918;-80
2021/12/23 01:48:01;;;;;;;;;;;5.30;99.90;;;;;;4969411;28;19926;-80
2021/12/23 01:50:30;;;;;;;;;;;5.40;99.90;;;;;;4968073;28;19927;-82
2021/12/23 01:52:58;;;;;;;;;;;6.50;99.90;;;;;;4961566;29;19940;-79
2021/12/23 01:55:27;;;;;;;;;;;4.10;99.90;;;;;;4937581;28;19927;-80
2021/12/23 01:57:57;;;;;;;;;;;5.40;99.90;;;;;;4987822;28;19948;-80
2021/12/23 02:00:29;;;;;;;;;;;5.40;99.90;;;;;;4969284;28;19937;-81
2021/12/23 02:02:58;;;;;;;;;;;6.30;99.90;;;;;;4970036;28;19942;-80
2021/12/23 02:05:26;;;;;;;;;;;5.50;99.90;;;;;;4969316;28;19937;-79
2021/12/23 02:07:58;;;;;;;;;;;5.50;99.90;;;;;;4969873;28;19926;-79
2021/12/23 02:10:27;;;;;;;;;;;5.50;99.90;;;;;;4972690;28;19936;-79
2021/12/23 02:12:55;;;;;;;;;;;5.50;99.90;;;;;;4974438;28;19940;-79
2021/12/23 02:15:24;;;;;;;;;;;5.50;99.90;;;;;;4989003;28;19941;-80
2021/12/23 02:17:53;;;;;;;;;;;5.60;99.90;;;;;;4956948;28;19926;-79
2021/12/23 02:20:22;;;;;;;;;;;5.40;99.90;;;;;;4990468;28;19937;-79
2021/12/23 02:22:50;;;;;;;;;;;4.10;99.90;;;;;;4952523;29;20100;-79
2021/12/23 02:25:19;;;;;;;;;;;5.60;99.90;;;;;;4985226;28;19929;-78
2021/12/23 02:27:47;;;;;;;;;;;4.70;99.90;;;;;;4986857;28;19933;-78
2021/12/23 02:30:17;;;;;;;;;;;5.60;99.90;;;;;;4988345;28;19933;-79
2021/12/23 02:32:46;;;;;;;;;;;7.10;99.90;;;;;;4972504;28;19949;-78
2021/12/23 02:35:14;;;;;;;;;;;5.60;99.90;;;;;;4988063;28;19930;-78
2021/12/23 02:37:42;;;;;;;;;;;5.60;99.90;;;;;;4971322;28;19925;-80
2021/12/23 02:40:11;;;;;;;;;;;6.20;99.90;;;;;;4971830;28;19926;-78
2021/12/23 02:42:40;;;;;;;;;;;5.70;99.90;;;;;;4956278;28;19934;-80
2021/12/23 02:45:09;;;;;;;;;;;5.70;99.90;;;;;;4953427;29;19937;-79
2021/12/23 02:47:39;;;;;;;;;;;5.70;99.90;;;;;;4954079;29;19927;-79
2021/12/23 02:50:10;;;;;;;;;;;6.00;99.90;;;;;;4972340;29;19927;-80
2021/12/23 02:52:40;;;;;;;;;;;5.70;99.90;;;;;;4966131;28;19926;-79
2021/12/23 02:55:08;;;;;;;;;;;5.70;99.90;;;;;;4992952;28;19941;-79
2021/12/23 02:57:36;;;;;;;;;;;6.70;99.90;;;;;;4960985;28;19929;-80
2021/12/23 03:00:05;;;;;;;;;;;5.70;99.90;;;;;;4976531;28;19926;-78
2021/12/23 03:02:37;;;;;;;;;;;5.70;99.90;;;;;;4975558;28;19941;-79
2021/12/23 03:05:05;;;;;;;;;;;5.90;99.90;;;;;;4975649;28;19926;-79
2021/12/23 03:07:35;;;;;;;;;;;5.80;99.90;;;;;;4975509;28;19964;-82
2021/12/23 03:10:06;;;;;;;;;;;5.50;99.90;;;;;;4975176;28;19930;-80
2021/12/23 03:12:34;;;;;;;;;;;6.00;99.90;;;;;;4992647;28;19945;-79
2021/12/23 03:15:02;;;;;;;;;;;5.90;99.90;;;;;;4989864;28;19926;-78
2021/12/23 03:17:30;;;;;;;;;;;5.90;99.90;;;;;;4990726;28;19926;-79
2021/12/23 03:19:58;;;;;;;;;;;5.90;99.90;;;;;;4990325;28;19934;-79
2021/12/23 03:22:26;;;;;;;;;;;5.90;99.90;;;;;;4972639;28;19936;-78
2021/12/23 03:24:54;;;;;;;;;;;5.90;99.90;;;;;;4987918;28;19930;-77
2021/12/23 03:27:21;;;;;;;;;;;6.00;99.90;;;;;;4972792;28;19926;-79
2021/12/23 03:29:49;;;;;;;;;;;6.00;99.90;;;;;;4972311;28;19926;-78
2021/12/23 03:32:17;;;;;;;;;;;6.00;99.90;;;;;;4950761;29;19926;-79
2021/12/23 03:34:45;;;;;;;;;;;6.00;99.90;;;;;;4974146;28;19933;-78
2021/12/23 03:37:13;;;;;;;;;;;6.00;99.90;;;;;;4972485;28;19929;-81
2021/12/23 03:39:41;;;;;;;;;;;6.10;99.90;;;;;;4972204;28;19930;-78
2021/12/23 03:42:12;;;;;;;;;;;6.10;99.90;;;;;;4971752;28;19938;-78
2021/12/23 03:44:41;;;;;;;;;;;6.00;99.90;;;;;;4971202;28;20382;-80
2021/12/23 03:47:10;;;;;;;;;;;6.10;99.90;;;;;;4988584;28;19941;-80
2021/12/23 03:49:39;;;;;;;;;;;6.10;99.90;;;;;;4940050;28;19945;-79
2021/12/23 03:52:08;;;;;;;;;;;6.50;99.90;;;;;;4986484;28;19930;-79
2021/12/23 03:54:36;;;;;;;;;;;6.10;99.90;;;;;;4989937;28;19930;-81
2021/12/23 03:57:05;;;;;;;;;;;6.20;99.90;;;;;;4973526;28;20005;-78
2021/12/23 03:59:33;;;;;;;;;;;6.20;99.90;;;;;;4986736;28;19926;-78
2021/12/23 04:02:03;;;;;;;;;;;6.20;99.90;;;;;;4972844;28;20419;-78
2021/12/23 04:04:31;;;;;;;;;;;6.80;99.90;;;;;;4987827;28;19930;-77
2021/12/23 04:06:59;;;;;;;;;;;6.80;99.90;;;;;;4987321;28;19930;-78
2021/12/23 04:09:27;;;;;;;;;;;6.30;99.90;;;;;;4988078;28;20020;-80
2021/12/23 04:11:55;;;;;;;;;;;6.30;99.90;;;;;;4955402;28;19926;-78
2021/12/23 04:14:23;;;;;;;;;;;6.30;99.90;;;;;;4954953;28;19937;-80
2021/12/23 04:16:50;;;;;;;;;;;6.30;99.90;;;;;;4971606;28;19914;-78
2021/12/23 04:19:19;;;;;;;;;;;6.30;99.90;;;;;;4973579;28;19950;-78
2021/12/23 04:21:47;;;;;;;;;;;6.40;99.90;;;;;;4974501;28;19930;-80
2021/12/23 04:24:15;;;;;;;;;;;6.40;99.90;;;;;;4958404;28;19941;-79
2021/12/23 04:26:43;;;;;;;;;;;6.50;99.90;;;;;;4970542;28;19934;-78
2021/12/23 04:29:10;;;;;;;;;;;6.40;99.90;;;;;;4968692;28;19926;-78
2021/12/23 04:31:38;;;;;;;;;;;6.40;99.90;;;;;;4937030;29;19926;-79
2021/12/23 04:34:06;;;;;;;;;;;6.50;99.90;;;;;;4952325;28;19926;-78
2021/12/23 04:36:34;;;;;;;;;;;6.40;99.90;;;;;;4987072;28;19934;-78
2021/12/23 04:39:03;;;;;;;;;;;6.50;99.90;;;;;;4952191;29;19937;-80
2021/12/23 04:41:32;;;;;;;;;;;6.50;99.90;;;;;;4986516;28;20280;-79
2021/12/23 04:44:00;;;;;;;;;;;6.60;99.90;;;;;;4960443;29;19940;-80
2021/12/23 04:46:28;;;;;;;;;;;6.60;99.90;;;;;;4966235;29;19937;-79
2021/12/23 04:48:56;;;;;;;;;;;6.60;99.90;;;;;;4969243;29;19933;-79
2021/12/23 04:51:24;;;;;;;;;;;6.70;99.90;;;;;;4952541;29;20514;-79
2021/12/23 04:53:51;;;;;;;;;;;6.60;99.90;;;;;;4955262;28;19926;-79
2021/12/23 04:56:19;;;;;;;;;;;7.50;99.90;;;;;;4978758;28;20275;-80
2021/12/23 04:58:49;;;;;;;;;;;6.70;99.90;;;;;;4972665;28;19926;-81
2021/12/23 05:01:21;;;;;;;;;;;6.70;99.90;;;;;;4988666;28;19937;-80
2021/12/23 05:03:50;;;;;;;;;;;6.70;99.90;;;;;;4988157;28;19926;-80
2021/12/23 05:06:18;;;;;;;;;;;6.70;99.90;;;;;;4971928;28;19940;-79
2021/12/23 05:08:46;;;;;;;;;;;5.80;99.90;;;;;;4955183;28;19936;-80
2021/12/23 05:11:15;;;;;;;;;;;6.80;99.90;;;;;;4973336;28;19926;-78
2021/12/23 05:13:43;;;;;;;;;;;6.80;99.90;;;;;;4972250;28;19930;-79
2021/12/23 05:16:12;;;;;;;;;;;6.80;99.90;;;;;;4989996;28;19937;-79
2021/12/23 05:18:43;;;;;;;;;;;6.80;99.90;;;;;;4989016;28;19926;-82
2021/12/23 05:21:10;;;;;;;;;;;6.80;99.90;;;;;;4973209;28;19926;-78
2021/12/23 05:23:39;;;;;;;;;;;7.10;99.90;;;;;;4971958;28;19930;-78
2021/12/23 05:26:08;;;;;;;;;;;7.00;99.90;;;;;;4988213;28;19926;-82
2021/12/23 05:28:36;;;;;;;;;;;6.90;99.90;;;;;;4987047;28;20332;-79
2021/12/23 05:31:06;;;;;;;;;;;6.90;99.90;;;;;;4969036;28;19946;-83
2021/12/23 05:33:33;;;;;;;;;;;6.90;99.90;;;;;;4970216;28;19918;-78
2021/12/23 05:36:02;;;;;;;;;;;6.70;99.90;;;;;;4985799;28;19933;-79
2021/12/23 05:38:32;;;;;;;;;;;5.30;99.90;;;;;;4951033;28;19930;-79
2021/12/23 05:41:04;;;;;;;;;;;7.00;99.90;;;;;;4967397;28;19940;-79
2021/12/23 05:43:31;;;;;;;;;;;7.40;99.90;;;;;;4978907;28;19931;-78
2021/12/23 05:46:28;;;;;;;;;;;7.00;99.90;;;;;;4967954;29;19927;-79
2021/12/23 05:49:38;;;;;;;;;;;7.10;99.90;;;;;;4959044;28;19933;-78
2021/12/23 05:52:11;;;;;;;;;;;6.10;99.90;;;;;;4986211;28;20774;-78
2021/12/23 05:54:41;;;;;;;;;;;7.10;99.90;;;;;;4987263;28;19926;-78
2021/12/23 05:57:15;;;;;;;;;;;7.10;99.90;;;;;;4970114;28;19941;-79
2021/12/23 05:59:43;;;;;;;;;;;7.20;99.90;;;;;;4953473;28;20258;-79
2021/12/23 06:02:10;;;;;;;;;;;7.20;99.90;;;;;;4987186;28;19936;-79
2021/12/23 06:04:38;;;;;;;;;;;7.20;99.90;;;;;;4952270;28;19941;-78
2021/12/23 06:07:10;;;;;;;;;;;7.20;99.90;;;;;;4952562;28;19930;-78
2021/12/23 06:10:06;;;;;;;;;;;7.20;99.90;;;;;;4960745;28;20105;-78
2021/12/23 06:12:34;;;;;;;;;;;7.20;99.90;;;;;;4967527;28;20010;-78
2021/12/23 06:15:02;;;;;;;;;;;7.20;99.90;;;;;;4984127;28;19933;-79
2021/12/23 06:17:31;;;;;;;;;;;7.20;99.90;;;;;;4967734;28;20032;-78
2021/12/23 06:19:58;;;;;;;;;;;7.20;99.90;;;;;;4968923;28;19930;-78
2021/12/23 06:22:26;;;;;;;;;;;7.20;99.90;;;;;;4970214;28;19926;-79
2021/12/23 06:28:12;;;;;;;;;;;6.30;99.90;;;;;;4985797;28;19927;-81
2021/12/23 06:30:40;;;;;;;;;;;7.30;99.90;;;;;;4949342;28;20158;-80
2021/12/23 06:33:09;;;;;;;;;;;7.30;99.90;;;;;;4985626;28;20312;-81
2021/12/23 06:36:03;;;;;;;;;;;7.40;99.90;;;;;;4968451;28;19926;-78
2021/12/23 06:38:53;;;;;;;;;;;7.40;99.90;;;;;;4985117;28;19934;-79
2021/12/23 06:41:21;;;;;;;;;;;7.40;99.90;;;;;;4952472;28;19927;-79
2021/12/23 06:43:49;;;;;;;;;;;7.50;99.90;;;;;;4982543;28;19926;-80
2021/12/23 06:46:18;;;;;;;;;;;7.50;99.90;;;;;;4967008;28;19927;-79
2021/12/23 06:48:46;;;;;;;;;;;7.50;99.90;;;;;;4952244;28;19930;-78
2021/12/23 06:51:15;;;;;;;;;;;7.50;99.90;;;;;;4984661;28;19926;-77
2021/12/23 06:53:42;;;;;;;;;;;7.50;99.90;;;;;;4974187;28;19941;-77
2021/12/23 06:56:11;;;;;;;;;;;7.50;99.90;;;;;;4985308;28;19934;-78
2021/12/23 06:58:39;;;;;;;;;;;7.60;99.90;;;;;;4983528;28;19941;-80
2021/12/23 07:01:08;;;;;;;;;;;7.60;99.90;;;;;;4952062;28;19936;-78
2021/12/23 07:06:37;;;;;;;;;;;7.70;99.90;;;;;;4974612;28;19926;-80
2021/12/23 07:09:05;;;;;;;;;;;7.70;99.90;;;;;;4984807;28;19952;-79
2021/12/23 07:11:34;;;;;;;;;;;7.60;99.90;;;;;;4968822;28;19926;-81
2021/12/23 07:14:02;;;;;;;;;;;7.70;99.90;;;;;;4985844;28;19926;-78
2021/12/23 07:16:29;;;;;;;;;;;7.70;99.90;;;;;;4986720;28;19926;-81
2021/12/23 07:22:41;;;;;;;;;;;7.70;99.90;;;;;;4971110;28;19925;-78
2021/12/23 07:25:09;;;;;;;;;;;7.70;99.90;;;;;;4951293;29;19930;-81
2021/12/23 07:27:38;;;;;;;;;;;8.80;99.90;;;;;;4969260;28;19930;-78
2021/12/23 07:30:06;;;;;;;;;;;7.70;99.90;;;;;;4986696;28;19926;-78
2021/12/23 07:32:33;;;;;;;;;;;7.80;99.90;;;;;;4986515;28;19934;-79
2021/12/23 07:35:01;;;;;;;;;;;7.80;99.90;;;;;;4985802;28;19930;-78
2021/12/23 07:37:28;;;;;;;;;;;7.80;99.90;;;;;;4984936;28;19930;-78
2021/12/23 07:43:10;;;;;;;;;;;7.80;99.90;;;;;;4984038;28;19930;-80
2021/12/23 07:45:39;;;;;;;;;;;7.90;99.90;;;;;;4986465;28;20368;-85
2021/12/23 07:48:06;;;;;;;;;;;7.90;99.90;;;;;;4986719;28;19926;-78
2021/12/23 07:50:35;;;;;;;;;;;7.90;99.90;;;;;;4983420;28;20033;-78
2021/12/23 07:53:02;;;;;;;;;;;7.90;99.90;;;;;;4985899;28;19930;-79
2021/12/23 07:55:57;;;;;;;;;;;7.90;99.90;;;;;;4985239;28;19926;-78
2021/12/23 07:58:28;;;;;;;;;;;7.90;99.90;;;;;;4984750;28;19934;-78
2021/12/23 08:00:56;;;;;;;;;;;7.90;99.90;;;;;;4950254;28;19931;-78
2021/12/23 08:03:24;;;;;;;;;;;8.00;99.90;;;;;;4982335;28;20221;-80
2021/12/23 08:05:55;;;;;;;;;;;8.00;99.90;;;;;;4967727;28;20296;-78
2021/12/23 08:08:23;;;;;;;;;;;8.00;99.90;;;;;;4984138;28;19926;-81
2021/12/23 08:10:50;;;;;;;;;;;8.10;99.90;;;;;;4967312;28;19930;-80
2021/12/23 08:13:19;;;;;;;;;;;8.20;99.90;;;;;;4966872;28;19936;-80
2021/12/23 08:15:47;;;;;;;;;;;8.20;99.90;;;;;;4968098;28;19926;-78
2021/12/23 08:18:15;;;;;;;;;;;8.10;99.90;;;;;;4985325;28;19926;-81
2021/12/23 08:20:43;;;;;;;;;;;6.90;99.90;;;;;;4983038;28;20395;-78
2021/12/23 08:26:39;;;;;;;;;;;8.10;99.90;;;;;;4967746;28;19945;-80
2021/12/23 08:29:07;;;;;;;;;;;8.10;99.90;;;;;;4984557;28;19925;-84
2021/12/23 08:32:10;;;;;;;;;;;8.10;99.90;;;;;;4984878;28;19933;-78
2021/12/23 08:34:39;;;;;;;;;;;8.10;99.90;;;;;;4981412;28;19926;-80
2021/12/23 08:37:11;;;;;;;;;;;8.10;99.90;;;;;;4982146;28;19932;-78
2021/12/23 08:39:53;;;;;;;;;;;8.10;99.90;;;;;;4963540;28;20417;-80
2021/12/23 08:49:05;;;;;;;;;;;8.30;99.90;;;;;;4960365;28;19930;-80
2021/12/23 08:51:58;;;;;;;;;;;8.20;99.90;;;;;;4968185;28;19926;-81
2021/12/23 08:57:44;;;;;;;;;;;8.30;99.90;;;;;;4978575;28;19935;-78
2021/12/23 09:00:16;;;;;;;;;;;8.30;99.90;;;;;;4980292;28;19937;-79
2021/12/23 09:02:46;;;;;;;;;;;8.30;99.90;;;;;;4968025;28;19926;-78
2021/12/23 09:05:39;;;;;;;;;;;8.40;99.90;;;;;;4968737;28;19926;-77
2021/12/23 09:08:09;;;;;;;;;;;8.40;99.90;;;;;;4963122;28;20296;-79
2021/12/23 09:10:37;;;;;;;;;;;8.40;99.90;;;;;;4948111;29;19926;-79
2021/12/23 09:16:23;;;;;;;;;;;8.50;99.90;;;;;;4984479;28;19937;-79
2021/12/23 09:18:52;;;;;;;;;;;8.50;99.90;;;;;;4986984;28;19951;-78
2021/12/23 09:21:20;;;;;;;;;;;8.50;99.90;;;;;;4970564;28;19936;-79
2021/12/23 09:24:03;;;;;;;;;;;8.70;99.90;;;;;;4957708;28;19934;-78
2021/12/23 09:27:12;;;;;;;;;;;8.50;99.90;;;;;;4971468;28;20398;-81
2021/12/23 09:32:53;;;;;;;;;;;8.50;99.90;;;;;;4971823;28;19930;-84
2021/12/23 09:35:41;;;;;;;;;;;8.60;99.90;;;;;;4967055;28;20262;-81
2021/12/23 09:38:09;;;;;;;;;;;8.60;99.90;;;;;;4971467;28;19926;-78
2021/12/23 09:40:37;;;;;;;;;;;8.70;99.90;;;;;;4970573;28;20311;-84
2021/12/23 09:43:08;;;;;;;;;;;8.60;99.90;;;;;;4990935;28;19953;-82
2021/12/23 09:46:10;;;;;;;;;;;8.70;99.90;;;;;;4989983;28;19930;-80
2021/12/23 09:48:55;;;;;;;;;;;8.80;99.90;;;;;;4987827;28;19930;-79
2021/12/23 09:51:24;;;;;;;;;;;8.80;99.90;;;;;;4971614;28;19936;-80
2021/12/23 09:53:59;;;;;;;;;;;8.90;99.90;;;;;;4987084;28;19937;-80
2021/12/23 10:00:54;;;;;;;;;;;8.90;99.90;;;;;;4988946;28;19932;-78
2021/12/23 10:03:24;;;;;;;;;;;8.90;99.90;;;;;;4969914;28;19926;-80
2021/12/23 10:05:52;;;;;;;;;;;8.90;99.90;;;;;;4969474;28;20426;-81
2021/12/23 10:08:20;;;;;;;;;;;8.90;99.90;;;;;;4988335;28;19938;-79
2021/12/23 10:38:56;;;;;;;;;;;9.10;99.90;;;;;;4980512;28;19926;-83
2021/12/23 10:41:49;;;;;;;;;;;9.30;99.90;;;;;;4954804;28;20599;-82
2021/12/23 10:44:28;;;;;;;;;;;9.00;99.90;;;;;;4969294;28;19941;-83
2021/12/23 10:47:00;;;;;;;;;;;10.80;99.90;;;;;;4983576;28;19940;-82
2021/12/23 10:49:42;;;;;;;;;;;8.20;99.90;;;;;;4983886;28;19969;-83
2021/12/23 11:00:35;;;;;;;;;;;9.40;99.90;;;;;;4981985;28;19926;-83
2021/12/23 11:03:11;;;;;;;;;;;9.50;99.90;;;;;;4984877;28;19930;-84
2021/12/23 11:05:50;;;;;;;;;;;9.70;99.90;;;;;;4964614;28;19937;-82
2021/12/23 11:08:46;;;;;;;;;;;9.60;99.90;;;;;;4970256;28;19940;-83
2021/12/23 11:32:22;;;;;;;;;;;9.50;99.90;;;;;;4974180;28;19937;-82
2021/12/23 11:37:44;;;;;;;;;;;8.30;99.90;;;;;;4984484;28;19934;-85
2021/12/23 11:40:37;;;;;;;;;;;9.50;99.90;;;;;;4985490;28;19945;-83
2021/12/23 11:46:13;;;;;;;;;;;9.60;99.90;;;;;;4971505;28;19926;-83
2021/12/23 11:48:57;;;;;;;;;;;9.70;99.90;;;;;;4970305;28;19933;-84
2021/12/23 11:54:12;;;;;;;;;;;9.70;99.90;;;;;;4985894;28;19914;-82
2021/12/23 11:57:01;;;;;;;;;;;9.60;99.90;;;;;;4971210;28;19934;-82
2021/12/23 11:59:37;;;;;;;;;;;10.00;99.90;;;;;;4972668;28;19945;-82
2021/12/23 12:06:15;;;;;;;;;;;10.00;99.90;;;;;;4984801;28;19918;-81
2021/12/23 12:09:13;;;;;;;;;;;9.60;99.90;;;;;;4984005;28;19930;-82
2021/12/23 12:12:15;;;;;;;;;;;9.90;99.90;;;;;;4985015;28;20387;-84
2021/12/23 12:18:49;;;;;;;;;;;8.70;99.90;;;;;;4975293;28;19926;-81
2021/12/23 12:25:29;;;;;;;;;;;10.20;99.90;;;;;;4985236;28;19936;-82
2021/12/23 12:28:03;;;;;;;;;;;10.30;99.90;;;;;;4990133;28;19926;-85
2021/12/23 12:31:06;;;;;;;;;;;10.40;99.90;;;;;;4987379;28;19926;-82
2021/12/23 12:36:59;;;;;;;;;;;10.70;99.90;;;;;;4976832;28;19930;-83
2021/12/23 12:39:40;;;;;;;;;;;10.60;99.90;;;;;;4985969;28;19930;-82
2021/12/23 12:45:57;;;;;;;;;;;10.70;99.90;;;;;;4988406;28;19932;-81
2021/12/23 12:48:53;;;;;;;;;;;12.00;99.90;;;;;;4986878;28;19926;-82
2021/12/23 12:52:07;;;;;;;;;;;10.80;99.90;;;;;;4969250;28;19940;-83
2021/12/23 12:55:26;;;;;;;;;;;10.80;99.90;;;;;;4984050;28;19930;-86
2021/12/23 12:58:04;;;;;;;;;;;10.90;99.90;;;;;;4982667;28;20391;-82
2021/12/23 13:01:07;;;;;;;;;;;11.00;99.90;;;;;;4967975;28;19931;-81
2021/12/23 13:04:15;;;;;;;;;;;11.00;99.90;;;;;;4982943;28;19933;-82
2021/12/23 13:06:55;;;;;;;;;;;10.90;99.90;;;;;;4964672;28;20290;-83
2021/12/23 13:09:53;;;;;;;;;;;11.00;99.90;;;;;;4983923;28;19941;-82
2021/12/23 13:12:54;;;;;;;;;;;11.10;99.90;;;;;;4968798;28;19930;-81
2021/12/23 13:16:25;;;;;;;;;;;11.10;99.90;;;;;;4960657;28;20516;-81
2021/12/23 13:19:14;;;;;;;;;;;11.20;99.90;;;;;;4978805;28;19932;-83
2021/12/23 13:21:47;;;;;;;;;;;12.30;99.90;;;;;;4980081;28;19946;-85
2021/12/23 13:24:18;;;;;;;;;;;11.80;99.90;;;;;;4955348;28;19926;-84
2021/12/23 13:26:52;;;;;;;;;;;11.20;99.90;;;;;;4983450;28;19930;-84
2021/12/23 13:29:29;;;;;;;;;;;11.20;99.90;;;;;;4967907;28;19930;-82
2021/12/23 13:32:00;;;;;;;;;;;11.20;99.90;;;;;;4969245;28;19930;-82
2021/12/23 13:34:33;;;;;;;;;;;11.30;99.90;;;;;;4982941;28;19937;-83
2021/12/23 13:37:06;;;;;;;;;;;11.20;99.90;;;;;;4976372;28;19926;-83
2021/12/23 13:39:37;;;;;;;;;;;11.20;99.90;;;;;;4982087;28;20049;-83
2021/12/23 13:42:14;;;;;;;;;;;11.40;99.90;;;;;;4984159;28;19930;-83
2021/12/23 13:44:51;;;;;;;;;;;11.30;99.90;;;;;;4980784;28;19933;-82
2021/12/23 13:47:21;;;;;;;;;;;10.80;99.90;;;;;;4971185;28;19934;-86
2021/12/23 13:49:54;;;;;;;;;;;11.10;99.90;;;;;;4968978;28;19959;-84
2021/12/23 13:52:43;;;;;;;;;;;11.20;99.90;;;;;;4965039;28;20384;-83
2021/12/23 13:55:15;;;;;;;;;;;11.00;99.90;;;;;;4953722;28;19938;-85
2021/12/23 13:57:46;;;;;;;;;;;11.10;99.90;;;;;;4963077;28;19938;-86
2021/12/23 14:00:15;;;;;;;;;;;11.10;99.90;;;;;;4976761;28;19941;-86
2021/12/23 14:02:43;;;;;;;;;;;11.20;99.90;;;;;;4931217;28;19933;-85
2021/12/23 14:05:11;;;;;;;;;;;11.00;99.90;;;;;;4950003;28;19930;-87
2021/12/23 14:07:40;;;;;;;;;;;11.00;99.90;;;;;;4947885;28;19934;-85
2021/12/23 14:10:17;;;;;;;;;;;11.10;99.90;;;;;;4952636;28;19927;-85
2021/12/23 14:12:45;;;;;;;;;;;11.00;99.90;;;;;;4961809;28;19930;-86
2021/12/23 14:15:29;;;;;;;;;;;11.00;99.90;;;;;;4962446;28;19933;-86
2021/12/23 14:18:14;;;;;;;;;;;11.00;99.90;;;;;;4966146;28;19945;-86
2021/12/23 14:23:37;;;;;;;;;;;11.00;99.90;;;;;;4951157;28;19930;-86
2021/12/23 14:26:18;;;;;;;;;;;11.00;99.90;;;;;;4957482;28;19961;-87
2021/12/23 14:29:06;;;;;;;;;;;11.00;99.90;;;;;;4932130;29;19929;-87
2021/12/23 14:31:38;;;;;;;;;;;11.00;99.90;;;;;;4925804;29;19947;-86
2021/12/23 14:34:24;;;;;;;;;;;11.00;99.90;;;;;;4932678;29;19942;-86
2021/12/23 14:37:09;;;;;;;;;;;10.80;99.90;;;;;;4931713;29;19953;-86
2021/12/23 14:39:39;;;;;;;;;;;10.90;99.90;;;;;;4933582;29;20326;-88
2021/12/23 14:42:17;;;;;;;;;;;11.00;99.90;;;;;;4938278;29;19934;-86
2021/12/23 14:44:57;;;;;;;;;;;11.00;99.90;;;;;;4951114;28;19926;-85
2021/12/23 14:47:27;;;;;;;;;;;10.90;99.90;;;;;;4949618;28;20646;-85
2021/12/23 14:52:42;;;;;;;;;;;10.90;99.90;;;;;;4952352;28;19934;-85
2021/12/23 14:55:12;;;;;;;;;;;10.90;99.90;;;;;;4931476;29;19942;-87
2021/12/23 14:57:39;;;;;;;;;;;10.90;99.90;;;;;;4934848;29;19930;-86
2021/12/23 15:00:09;;;;;;;;;;;10.90;99.90;;;;;;4933968;29;19934;-86
2021/12/23 15:02:37;;;;;;;;;;;10.90;99.90;;;;;;4956096;29;19934;-85
2021/12/23 15:05:14;;;;;;;;;;;11.00;99.90;;;;;;4956213;29;19935;-87
2021/12/23 15:07:47;;;;;;;;;;;11.00;99.90;;;;;;4928402;29;19934;-86
2021/12/23 15:10:25;;;;;;;;;;;11.00;99.90;;;;;;4929440;29;20432;-86
2021/12/23 15:12:52;;;;;;;;;;;10.80;99.90;;;;;;4927227;29;19934;-87
2021/12/23 15:15:19;;;;;;;;;;;11.00;99.90;;;;;;4928716;29;19935;-87
2021/12/23 15:17:52;;;;;;;;;;;11.00;99.90;;;;;;4920943;29;19946;-87
2021/12/23 15:20:28;;;;;;;;;;;11.00;99.90;;;;;;4911131;29;19935;-86
2021/12/23 15:23:00;;;;;;;;;;;11.00;99.90;;;;;;4931036;29;20321;-87
2021/12/23 15:25:34;;;;;;;;;;;9.90;99.90;;;;;;4927704;29;19935;-84
2021/12/23 15:28:11;;;;;;;;;;;11.00;99.90;;;;;;4943832;28;19930;-83
2021/12/23 15:30:48;;;;;;;;;;;9.80;99.90;;;;;;4942227;28;20349;-83
2021/12/23 15:33:20;;;;;;;;;;;9.60;99.90;;;;;;4941933;28;19933;-84
2021/12/23 15:35:49;;;;;;;;;;;11.10;99.90;;;;;;4937963;29;20043;-85
2021/12/23 15:38:17;;;;;;;;;;;10.90;99.90;;;;;;4919561;29;19942;-85
2021/12/23 15:40:45;;;;;;;;;;;11.00;99.90;;;;;;4920242;29;19941;-86
2021/12/23 15:43:16;;;;;;;;;;;10.80;99.90;;;;;;4939893;29;19934;-88
2021/12/23 15:45:52;;;;;;;;;;;10.90;99.90;;;;;;4932902;29;19925;-88
2021/12/23 15:48:34;;;;;;;;;;;11.00;99.90;;;;;;4940169;29;19930;-88
2021/12/23 15:51:03;;;;;;;;;;;9.50;99.90;;;;;;4950737;29;19934;-88
2021/12/23 15:53:31;;;;;;;;;;;11.00;99.90;;;;;;4946111;29;19931;-87
2021/12/23 15:56:10;;;;;;;;;;;11.00;99.90;;;;;;4928561;29;20610;-88
2021/12/23 15:58:43;;;;;;;;;;;11.20;99.90;;;;;;4949589;28;19934;-89
2021/12/23 16:01:39;;;;;;;;;;;11.10;99.90;;;;;;4960342;28;19927;-89
2021/12/23 16:04:13;;;;;;;;;;;11.20;99.90;;;;;;4956210;29;19957;-89
2021/12/23 16:10:00;;;;;;;;;;;10.80;99.90;;;;;;4976316;28;19914;-88
2021/12/23 16:12:56;;;;;;;;;;;11.10;99.90;;;;;;4995111;23;19933;-83
2021/12/23 16:15:45;;;;;;;;;;;10.90;99.90;;;;;;5003825;28;19932;-83
2021/12/23 16:18:23;;;;;;;;;;;9.40;99.90;;;;;;5038019;28;19926;-84
2021/12/23 16:25:00;;;;;;;;;;;10.90;99.90;;;;;;5009558;28;20622;-84
2021/12/23 16:27:43;;;;;;;;;;;11.00;99.90;;;;;;5023297;28;19930;-83
2021/12/23 16:30:24;;;;;;;;;;;10.20;99.90;;;;;;4991594;28;19933;-82
2021/12/23 16:33:33;;;;;;;;;;;;;;;;;;;;;
2021/12/23 16:36:31;;;;;;;;;;;11.10;99.90;;;;;;5002783;28;19925;-82
2021/12/23 16:39:18;;;;;;;;;;;11.00;99.90;;;;;;5020346;28;19940;-82
2021/12/23 16:42:13;;;;;;;;;;;11.10;99.90;;;;;;5001107;28;19941;-82
2021/12/23 16:44:48;;;;;;;;;;;10.90;99.90;;;;;;5020463;28;19936;-82
2021/12/23 16:47:21;;;;;;;;;;;10.90;99.90;;;;;;5008894;28;20458;-83
2021/12/23 16:49:54;;;;;;;;;;;11.00;99.90;;;;;;5021429;28;20406;-80
2021/12/23 16:52:35;;;;;;;;;;;10.90;99.90;;;;;;5021588;28;19958;-83
2021/12/23 16:55:10;;;;;;;;;;;11.00;99.90;;;;;;4988157;28;19930;-84
2021/12/23 16:57:41;;;;;;;;;;;11.00;99.90;;;;;;4999415;28;19930;-82
2021/12/23 17:00:21;;;;;;;;;;;11.30;99.90;;;;;;4987223;28;19934;-83
2021/12/23 17:02:54;;;;;;;;;;;12.40;99.90;;;;;;4999610;28;19929;-83
2021/12/23 17:05:26;;;;;;;;;;;11.40;99.90;;;;;;4984491;28;19945;-83
2021/12/23 17:07:57;;;;;;;;;;;11.00;99.90;;;;;;4980553;28;20014;-83
2021/12/23 17:10:51;;;;;;;;;;;10.90;99.90;;;;;;4971742;28;20087;-83
2021/12/23 17:14:13;;;;;;;;;;;;;;;;;;;;;
2021/12/23 17:17:34;;;;;;;;;;;10.80;99.90;;;;;;5057937;22;20263;-83
2021/12/23 17:23:06;;;;;;;;;;;10.90;99.90;;;;;;5051490;28;19935;-86
2021/12/23 17:25:44;;;;;;;;;;;10.00;99.90;;;;;;5051362;28;19929;-82
2021/12/23 17:28:19;;;;;;;;;;;12.60;99.90;;;;;;5057644;28;19929;-81
2021/12/23 17:30:50;;;;;;;;;;;10.90;99.90;;;;;;5038046;28;19929;-81